Bookmark and Share
Track history (hours):
 

Kopernik

Last reported at 2014-Apr-16 04:32 UTC. Time now 2014-Apr-16 05:21 UTC.
Position N 55°26' E 013°50'.

Length 160 m; draft 5.7 m.

Type: Passenger vessel. MMSI: 261449000.

NotesDate/timePositionNaut miles runAvg speedWind from/ knotsBaromVisibWave heightAir tempDewpointWater temp
2014-Apr-16 04:32N 55°26' E 013°50'0 0.0
2014-Apr-16 03:32N 55°26' E 013°50'2 1.9
2014-Apr-16 02:33N 55°24' E 013°48'1010.0
2014-Apr-16 01:33N 55°14' E 013°50'1010.3
2014-Apr-16 00:33N 55°04' E 013°54'1110.8
2014-Apr-15 23:33N 54°53' E 013°58'1110.6
2014-Apr-15 22:33N 54°43' E 014°02'1010.4
2014-Apr-15 21:33N 54°33' E 014°05'1010.5
2014-Apr-15 20:33N 54°23' E 014°10'1010.4
2014-Apr-15 19:33N 54°12' E 014°13'1010.2
2014-Apr-15 18:33N 54°02' E 014°16'8 8.2
2014-Apr-15 17:32N 53°54' E 014°15'0 0.1
2014-Apr-15 16:32N 53°54' E 014°15'0 0.0
2014-Apr-15 15:31N 53°54' E 014°15'1 1.4
2014-Apr-15 14:33N 53°55' E 014°17'12 5.8
2014-Apr-15 12:34N 54°06' E 014°13'1212.1
2014-Apr-15 11:34N 54°18' E 014°09'1212.0
2014-Apr-15 10:34N 54°30' E 014°05'1312.7
2014-Apr-15 09:34N 54°42' E 014°02'3015.1
2014-Apr-15 07:34N 55°12' E 013°51'14 3.4
2014-Apr-15 03:34N 55°26' E 013°50'0 0.0
2014-Apr-15 02:33N 55°26' E 013°50'2 1.9
2014-Apr-15 01:34N 55°24' E 013°48'1110.7
2014-Apr-15 00:33N 55°13' E 013°51'9 9.6
2014-Apr-14 23:34N 55°04' E 013°54'10 9.9
2014-Apr-14 22:34N 54°54' E 013°58'10 9.5
2014-Apr-14 21:34N 54°45' E 014°01'10 9.3
2014-Apr-14 20:30N 54°35' E 014°05'9 9.4
2014-Apr-14 19:34N 54°27' E 014°09'1111.5
2014-Apr-14 18:34N 54°15' E 014°12'1212.4
2014-Apr-14 17:34N 54°03' E 014°15'9 9.1
2014-Apr-14 16:33N 53°54' E 014°15'0 0.1
2014-Apr-14 15:33N 53°54' E 014°15'0 0.0
2014-Apr-14 14:33N 53°54' E 014°15'1 1.1
2014-Apr-14 13:34N 53°55' E 014°17'2411.9
2014-Apr-14 11:33N 54°18' E 014°10'1212.1
2014-Apr-14 10:34N 54°30' E 014°06'1212.2
2014-Apr-14 09:34N 54°42' E 014°02'1514.6
2014-Apr-14 08:33N 54°57' E 013°57'1515.2
2014-Apr-14 07:33N 55°11' E 013°51'1414.0
2014-Apr-14 06:33N 55°25' E 013°49'45 5.6
2014-Apr-13 22:33N 54°41' E 014°03'10 9.9
2014-Apr-13 21:30N 54°31' E 014°06'9 9.7
2014-Apr-13 20:34N 54°22' E 014°08'10 9.8
2014-Apr-13 19:33N 54°12' E 014°11'10 9.8
2014-Apr-13 18:34N 54°02' E 014°14'9 8.3
2014-Apr-13 17:32N 53°54' E 014°15'0 0.1
2014-Apr-13 16:32N 53°54' E 014°15'0 0.0
2014-Apr-13 15:32N 53°54' E 014°15'1 1.1
2014-Apr-13 14:34N 53°55' E 014°17'1111.3
2014-Apr-13 13:33N 54°06' E 014°13'1212.2
2014-Apr-13 12:33N 54°18' E 014°10'1212.2
2014-Apr-13 11:33N 54°30' E 014°06'1312.6
2014-Apr-13 10:33N 54°42' E 014°01'1515.1
2014-Apr-13 09:33N 54°57' E 013°56'1515.2
2014-Apr-13 08:33N 55°12' E 013°51'13 3.1
2014-Apr-13 04:16N 55°26' E 013°50'0 0.0
2014-Apr-13 03:16N 55°26' E 013°50'2 2.9
2014-Apr-13 02:33N 55°24' E 013°48'10 9.5
2014-Apr-13 01:33N 55°14' E 013°52'10 9.6
2014-Apr-13 00:33N 55°05' E 013°54'1010.6
2014-Apr-12 23:33N 54°55' E 013°58'1110.7
2014-Apr-12 22:33N 54°44' E 014°01'1110.6
2014-Apr-12 21:30N 54°33' E 014°06'1010.5
2014-Apr-12 20:33N 54°23' E 014°10'1110.5
2014-Apr-12 19:33N 54°13' E 014°12'1010.5
2014-Apr-12 18:33N 54°03' E 014°15'9 8.5
2014-Apr-12 17:31N 53°54' E 014°15'0 0.1
2014-Apr-12 16:31N 53°54' E 014°15'0 0.0
2014-Apr-12 15:31N 53°54' E 014°15'2 1.9
2014-Apr-12 14:34N 53°56' E 014°17'10 9.7
2014-Apr-12 13:34N 54°05' E 014°13'1111.3
2014-Apr-12 12:34N 54°16' E 014°10'1413.8
2014-Apr-12 11:33N 54°30' E 014°06'1414.4
2014-Apr-12 10:34N 54°44' E 014°01'1414.5
2014-Apr-12 09:33N 54°58' E 013°56'1414.4
2014-Apr-12 08:34N 55°12' E 013°52'1313.2
2014-Apr-12 07:33N 55°25' E 013°49'0 0.2
2014-Apr-12 06:27N 55°26' E 013°50'0 0.0
2014-Apr-12 05:24N 55°26' E 013°50'0 0.0
2014-Apr-12 04:33N 55°26' E 013°50'0 0.0
2014-Apr-12 03:27N 55°26' E 013°50'2 2.4
2014-Apr-12 02:33N 55°24' E 013°48'10 9.7
2014-Apr-12 01:33N 55°14' E 013°50'10 9.9
2014-Apr-12 00:33N 55°04' E 013°53'10 9.8
2014-Apr-11 23:33N 54°55' E 013°58'1010.4
2014-Apr-11 22:33N 54°45' E 014°01'1110.8
2014-Apr-11 21:33N 54°34' E 014°06'1110.7
2014-Apr-11 20:33N 54°24' E 014°09'1110.8
2014-Apr-11 19:32N 54°13' E 014°12'1010.6
2014-Apr-11 18:33N 54°03' E 014°15'9 8.5
2014-Apr-11 17:33N 53°54' E 014°15'0 0.1
2014-Apr-11 16:33N 53°54' E 014°15'0 0.0
2014-Apr-11 15:33N 53°54' E 014°15'2 2.5
2014-Apr-11 14:33N 53°56' E 014°16'10 9.8
2014-Apr-11 13:34N 54°06' E 014°13'1211.4
2014-Apr-11 12:32N 54°18' E 014°10'1212.2
2014-Apr-11 11:34N 54°29' E 014°06'1414.3
2014-Apr-11 10:33N 54°43' E 014°01'1414.4
2014-Apr-11 09:33N 54°57' E 013°57'1514.3
2014-Apr-11 08:32N 55°12' E 013°51'1413.6
2014-Apr-11 07:32N 55°25' E 013°49'2 0.3
2014-Apr-11 02:33N 55°24' E 013°48'14 9.5
2014-Apr-11 01:06N 55°10' E 013°52'6 9.8
2014-Apr-11 00:32N 55°05' E 013°54'10 9.8
2014-Apr-10 23:29N 54°55' E 013°58'1010.7
2014-Apr-10 22:33N 54°45' E 014°00'1110.8
2014-Apr-10 21:33N 54°34' E 014°05'1110.9
2014-Apr-10 20:33N 54°24' E 014°09'1110.8
2014-Apr-10 19:33N 54°13' E 014°12'1110.7
2014-Apr-10 18:33N 54°03' E 014°15'9 8.7
2014-Apr-10 17:33N 53°54' E 014°15'0 0.1
2014-Apr-10 16:32N 53°54' E 014°15'0 0.0
2014-Apr-10 15:32N 53°54' E 014°15'1 1.3
2014-Apr-10 14:33N 53°55' E 014°17'1111.1
2014-Apr-10 13:33N 54°06' E 014°13'1211.9
2014-Apr-10 12:33N 54°18' E 014°10'5656.5
2014-Apr-10 11:33N 55°14' E 014°06'3231.7
2014-Apr-10 10:33N 54°42' E 014°01'1514.9
2014-Apr-10 09:33N 54°57' E 013°56'1514.9
2014-Apr-10 08:33N 55°12' E 013°51'1413.7
2014-Apr-10 07:33N 55°25' E 013°49'0 0.1
2014-Apr-10 04:22N 55°26' E 013°50'0 0.0
2014-Apr-10 03:28N 55°26' E 013°50'2 2.3
2014-Apr-10 02:33N 55°24' E 013°48'9 8.6
2014-Apr-10 01:33N 55°15' E 013°51'8 8.1
2014-Apr-10 00:33N 55°07' E 013°53'10 9.5
2014-Apr-09 23:33N 54°58' E 013°56'10 9.8
2014-Apr-09 22:33N 54°48' E 014°00'10 9.5
2014-Apr-09 21:33N 54°39' E 014°04'1212.1
2014-Apr-09 20:33N 54°27' E 014°08'1212.0
2014-Apr-09 19:33N 54°15' E 014°12'1212.3
2014-Apr-09 18:34N 54°03' E 014°15'9 9.0
2014-Apr-09 17:31N 53°54' E 014°15'0 0.1
2014-Apr-09 16:31N 53°54' E 014°15'0 0.0
2014-Apr-09 15:31N 53°54' E 014°15'1 0.9
2014-Apr-09 14:33N 53°55' E 014°16'1110.6
2014-Apr-09 13:33N 54°05' E 014°13'1211.8
2014-Apr-09 12:34N 54°17' E 014°10'1211.7
2014-Apr-09 11:33N 54°28' E 014°06'1514.9
2014-Apr-09 10:34N 54°43' E 014°01'1514.8
2014-Apr-09 09:32N 54°57' E 013°55'1514.8
2014-Apr-09 08:32N 55°12' E 013°50'14 4.3
2014-Apr-09 05:21N 55°26' E 013°50'0 0.0
2014-Apr-09 04:33N 55°26' E 013°50'0 0.0
2014-Apr-09 03:21N 55°26' E 013°50'2 2.9
2014-Apr-09 02:33N 55°23' E 013°48'1312.8
2014-Apr-09 01:33N 55°11' E 013°53'1010.3
2014-Apr-09 00:33N 55°01' E 013°53'1010.0
2014-Apr-08 23:33N 54°51' E 013°59'1010.1
2014-Apr-08 22:33N 54°41' E 014°02'10 9.9
2014-Apr-08 21:33N 54°32' E 014°06'1010.0
2014-Apr-08 20:33N 54°22' E 014°11'1010.2
2014-Apr-08 19:33N 54°12' E 014°13'1010.1
2014-Apr-08 18:33N 54°02' E 014°15'8 8.0
2014-Apr-08 17:33N 53°54' E 014°15'0 0.1
2014-Apr-08 16:33N 53°54' E 014°15'0 0.0
2014-Apr-08 15:33N 53°54' E 014°15'1 0.6
2014-Apr-08 14:33N 53°54' E 014°16'1110.6
2014-Apr-08 13:33N 54°05' E 014°13'1212.2
2014-Apr-08 12:33N 54°17' E 014°09'1312.4
2014-Apr-08 11:33N 54°29' E 014°04'1514.9
2014-Apr-08 10:33N 54°44' E 014°01'1514.7
2014-Apr-08 09:31N 54°59' E 013°56'1414.5
2014-Apr-08 08:33N 55°13' E 013°51'13 3.1
2014-Apr-08 04:18N 55°26' E 013°50'0 0.0
2014-Apr-08 03:24N 55°26' E 013°50'2 2.6
2014-Apr-08 02:33N 55°24' E 013°48'1010.0
2014-Apr-08 01:33N 55°14' E 013°51'10 9.7
2014-Apr-08 00:33N 55°04' E 013°54'1010.1
2014-Apr-07 23:33N 54°54' E 013°58'1010.2
2014-Apr-07 22:33N 54°44' E 014°02'1010.4
2014-Apr-07 21:34N 54°34' E 014°06'1110.7
2014-Apr-07 20:34N 54°24' E 014°09'1110.7
2014-Apr-07 19:33N 54°13' E 014°12'19 9.2
2014-Apr-07 17:29N 53°54' E 014°15'0 0.0
2014-Apr-07 16:32N 53°54' E 014°15'0 0.0
2014-Apr-07 15:32N 53°54' E 014°15'1 1.3
2014-Apr-07 14:34N 53°55' E 014°17'1110.8
2014-Apr-07 13:33N 54°06' E 014°13'1212.1
2014-Apr-07 12:33N 54°17' E 014°09'1212.1
2014-Apr-07 11:34N 54°29' E 014°06'1212.4
2014-Apr-07 10:33N 54°41' E 014°01'1615.1
2014-Apr-07 09:31N 54°57' E 013°56'1515.0
2014-Apr-07 08:32N 55°11' E 013°52'1414.1
2014-Apr-07 07:33N 55°25' E 013°49'0 0.1
2014-Apr-07 04:04N 55°26' E 013°50'0 0.0
2014-Apr-07 03:28N 55°26' E 013°50'2 2.0
2014-Apr-07 02:33N 55°24' E 013°48'10 9.8
2014-Apr-07 01:33N 55°14' E 013°50'9 9.4
2014-Apr-07 00:33N 55°05' E 013°53'1010.2
2014-Apr-06 23:33N 54°55' E 013°57'1211.0
2014-Apr-06 22:30N 54°44' E 014°02'1110.8
2014-Apr-06 21:27N 54°33' E 014°06'910.5
2014-Apr-06 20:33N 54°23' E 014°09'1110.5
2014-Apr-06 19:33N 54°13' E 014°12'1010.4
2014-Apr-06 18:33N 54°03' E 014°15'9 8.7
2014-Apr-06 17:33N 53°54' E 014°15'0 0.1
2014-Apr-06 16:33N 53°54' E 014°15'0 0.0
2014-Apr-06 15:33N 53°54' E 014°15'2 1.6
2014-Apr-06 14:33N 53°55' E 014°17'1110.8
2014-Apr-06 13:34N 54°06' E 014°13'1212.0
2014-Apr-06 12:33N 54°17' E 014°08'1212.1
2014-Apr-06 11:34N 54°29' E 014°03'1312.9
2014-Apr-06 10:33N 54°42' E 014°01'1514.7
2014-Apr-06 09:33N 54°57' E 013°58'1514.9
2014-Apr-06 08:34N 55°11' E 013°51'1414.1
2014-Apr-06 07:33N 55°25' E 013°49'1 0.3
2014-Apr-06 05:13N 55°26' E 013°50'  

Dump ship's entire track history

sailing weather and tide predictions

Kopernik — SPS2643 — position and weather